Antonio Macea, Cuba

4:38 PM CDT on April 30, 2017 (GMT -0400)
Guantanamo Bay Naval Air Station | | Change Station

Elev 56 ft 19.91 °N, 75.21 °W | Updated 42 minutes ago

Partly Cloudy
Partly Cloudy
84 °F
Feels Like 90 °F
N
23
Wind Variable Wind from ESE
Gusts 31 mph

Today
High -- | Low -- °F
--% Chance of Precip.
Yesterday
High -- | Low -- °F
Precip. -- in
Pressure 29.96 in
Visibility 6.2 miles
Clouds Few 3500 ft
Scattered Clouds 6000 ft
Mostly Cloudy 25000 ft
Heat Index 90 °F
Dew Point 73 °F
Humidity 69%
Rainfall 0.00 in
Snow Depth Not available.
6:34 AM 7:26 PM
Waxing Crescent, 26% visible
METAR MUGM 301956Z 11020G27KT 9999 FEW035 SCT060 BKN250 29/23 A2996 RMK PK WND 12029/1922 SLP145 DSNT SHRA NW AND N T02890228
Pressure 29.96 in
Visibility 6.2 miles
Clouds Few 3500 ft
Scattered Clouds 6000 ft
Mostly Cloudy 25000 ft
Heat Index 90 °F
Dew Point 73 °F
Humidity 69%
Rainfall 0.00 in
Snow Depth Not available.
6:34 AM 7:26 PM
Waxing Crescent, 26% visible
METAR MUGM 301956Z 11020G27KT 9999 FEW035 SCT060 BKN250 29/23 A2996 RMK PK WND 12029/1922 SLP145 DSNT SHRA NW AND N T02890228

Get Severe Weather Alerts

Thanks for signing up!

Be on the lookout for a verification email in your inbox.

You'll start receiving the daily forecast at 8 AM.

×

10-Day Weather Forecast

No radar image for this location.
×

Almanac

Astronomy

Apr. 30, 2017 Rise Set
Actual Time
Civil Twilight
Nautical Twilight
Astronomical Twilight
Moon
Length of Visible Light
Length of Day
Tomorrow will be .
, % of the Moon is Illuminated

Today's Extremes

Country Highs Country Lows

Community

WunderPhotos

WunderBlog® & News

Nearby

Air Quality

  Air Quality AQ Index Pollutant
Not available.

Snow Depth

Station Depth Elevation

Earthquake Activity

City Distance Mag. Time & Date
Minimum magnitude displayed is 2.5.

Coastal Water Temperatures

Place Temperature

Stations

Nearby Weather Stations

Station Location Temp. Windchill Dew Point Humidity Wind Precip. Elev Updated Type